NK76 weather

Grammar Airport
Geneva, New York, United States

Public forecast

Using degrees Fahrenheit for public forecast. Weather courtesy of forecast.io.

Closest aviation weather report (METAR) to Grammar Airport

Closest report is Penn Yan Airport, 14.7 nm (27.3 km) S. Retrieved 2019/11/22 05:53 UTC (25 minutes ago):

KPEO 220553Z AUTO 20012G18KT 10SM BKN032 OVC050 09/02 A2973 RMK AO2 SLP071 60000 T00940022 10094 20078 58019

Closest aviation forecast (TAF) to Grammar Airport

Closest forecast is Greater Rochester International Airport, 30.7 nm (56.9 km) WNW. Retrieved 2019/11/22 06:40 UTC (0 seconds ago):

TAF KROC 220538Z 2206/2306 22015G25KT 6SM -RA BKN015 OVC025 FM220800 25020G40KT P6SM BKN015 FM221200 27022G42KT P6SM OVC025 FM221500 28020G34KT P6SM BKN025 FM222100 29015G25KT P6SM SCT050 BKN250 FM230000 27012KT P6SM SCT050 SCT120